createdAt,value
2022-09-04T00:00:07.010Z,20.94
2022-09-04T00:02:52.148Z,20.93
2022-09-04T00:05:56.935Z,20.95
2022-09-04T00:08:32.374Z,20.91
2022-09-04T00:11:18.934Z,20.84
2022-09-04T00:14:17.768Z,20.79
2022-09-04T00:17:23.383Z,20.74
2022-09-04T00:19:56.320Z,20.73
2022-09-04T00:22:31.532Z,20.73
2022-09-04T00:25:14.802Z,20.73
2022-09-04T00:27:47.668Z,20.72
2022-09-04T00:30:20.506Z,20.66
2022-09-04T00:33:11.933Z,20.63
2022-09-04T00:35:44.857Z,20.59
2022-09-04T00:38:26.727Z,20.56
2022-09-04T00:41:32.348Z,20.52
2022-09-04T00:44:08.142Z,20.52
2022-09-04T00:47:18.188Z,20.50
2022-09-04T00:49:44.786Z,20.42
2022-09-04T00:52:36.810Z,20.42
2022-09-04T00:55:16.072Z,20.35
2022-09-04T00:58:09.333Z,20.26
2022-09-04T01:00:36.652Z,20.24
2022-09-04T01:03:22.134Z,20.22
2022-09-04T01:06:11.057Z,20.24
2022-09-04T01:09:05.769Z,20.21
2022-09-04T01:11:43.586Z,20.18
2022-09-04T01:14:42.540Z,20.16
2022-09-04T01:17:14.979Z,20.08
2022-09-04T01:20:06.401Z,20.09
2022-09-04T01:22:56.483Z,20.08
2022-09-04T01:25:32.128Z,20.04
2022-09-04T01:28:29.931Z,19.99
2022-09-04T01:31:08.105Z,19.97
2022-09-04T01:33:54.894Z,19.97
2022-09-04T01:36:49.990Z,19.97
2022-09-04T01:39:21.178Z,19.89
2022-09-04T01:41:56.829Z,19.88
2022-09-04T01:44:23.633Z,19.92
2022-09-04T01:47:15.593Z,19.89
2022-09-04T01:49:51.889Z,19.89
2022-09-04T01:52:36.787Z,19.89
2022-09-04T01:55:30.409Z,19.84
2022-09-04T01:58:21.561Z,19.84
2022-09-04T02:01:42.446Z,19.81
2022-09-04T02:04:15.073Z,19.77
2022-09-04T02:07:19.126Z,19.75
2022-09-04T02:10:11.909Z,19.74
2022-09-04T02:12:58.348Z,19.64
2022-09-04T02:15:58.533Z,19.67
2022-09-04T02:18:33.063Z,19.64
2022-09-04T02:21:31.581Z,19.61
2022-09-04T02:24:19.220Z,19.61
2022-09-04T02:27:12.886Z,19.60
2022-09-04T02:29:58.070Z,19.56
2022-09-04T02:32:37.936Z,19.56
2022-09-04T02:35:09.906Z,19.54
2022-09-04T02:37:58.283Z,19.50
2022-09-04T02:40:49.857Z,19.51
2022-09-04T02:43:40.752Z,19.47
2022-09-04T02:46:43.368Z,19.47
2022-09-04T02:49:28.063Z,19.37
2022-09-04T02:52:09.726Z,19.29
2022-09-04T02:55:01.292Z,19.26
2022-09-04T02:57:55.186Z,19.23
2022-09-04T03:00:43.803Z,19.22
2022-09-04T03:03:24.206Z,19.15
2022-09-04T03:06:02.371Z,19.13
2022-09-04T03:08:41.484Z,19.13
2022-09-04T03:11:24.303Z,19.09
2022-09-04T03:14:20.229Z,19.08
2022-09-04T03:16:59.632Z,18.99
2022-09-04T03:19:45.267Z,19.02
2022-09-04T03:22:30.907Z,18.95
2022-09-04T03:25:12.771Z,18.94
2022-09-04T03:27:39.323Z,18.88
2022-09-04T03:30:07.890Z,18.89
2022-09-04T03:32:49.736Z,18.88
2022-09-04T03:35:24.361Z,18.84
2022-09-04T03:38:18.344Z,18.78
2022-09-04T03:41:04.450Z,18.78
2022-09-04T03:43:48.991Z,18.76
2022-09-04T03:46:37.129Z,18.72
2022-09-04T03:49:39.061Z,18.71
2022-09-04T03:52:21.771Z,18.71
2022-09-04T03:55:12.537Z,18.69
2022-09-04T03:58:08.807Z,18.67
2022-09-04T04:01:14.235Z,18.58
2022-09-04T04:04:05.504Z,18.57
2022-09-04T04:07:00.714Z,18.57
2022-09-04T04:09:51.188Z,18.55
2022-09-04T04:12:45.705Z,18.52
2022-09-04T04:15:27.903Z,18.51
2022-09-04T04:18:13.461Z,18.50
2022-09-04T04:21:00.732Z,18.47
2022-09-04T04:24:04.497Z,18.44
2022-09-04T04:27:04.307Z,18.45
2022-09-04T04:29:52.365Z,18.44
2022-09-04T04:32:37.434Z,18.45
2022-09-04T04:35:38.514Z,18.51
2022-09-04T04:38:18.666Z,18.51
2022-09-04T04:41:00.284Z,18.45
2022-09-04T04:43:51.447Z,18.43
2022-09-04T04:46:39.336Z,18.45
2022-09-04T04:49:11.966Z,18.41
2022-09-04T04:52:02.496Z,18.40
2022-09-04T04:54:51.377Z,18.31
2022-09-04T04:57:36.000Z,18.31
2022-09-04T05:00:24.000Z,18.26
2022-09-04T05:02:56.591Z,18.24
2022-09-04T05:05:48.176Z,18.22
2022-09-04T05:08:26.971Z,18.20
2022-09-04T05:11:03.266Z,18.18
2022-09-04T05:14:05.272Z,18.17
2022-09-04T05:16:52.194Z,18.12
2022-09-04T05:19:52.456Z,18.18
2022-09-04T05:22:44.785Z,18.16
2022-09-04T05:25:39.266Z,18.18
2022-09-04T05:28:11.666Z,18.18
2022-09-04T05:31:04.984Z,18.16
2022-09-04T05:33:38.625Z,18.14
2022-09-04T05:36:29.805Z,18.17
2022-09-04T05:39:33.625Z,18.16
2022-09-04T05:42:19.000Z,18.20
2022-09-04T05:44:51.699Z,18.24
2022-09-04T05:47:43.631Z,18.29
2022-09-04T05:50:18.494Z,18.29
2022-09-04T05:53:00.146Z,18.36
2022-09-04T05:55:55.155Z,18.43
2022-09-04T05:58:27.428Z,18.45
2022-09-04T06:01:15.104Z,18.54
2022-09-04T06:04:07.797Z,18.67
2022-09-04T06:06:53.920Z,18.81
2022-09-04T06:09:27.667Z,18.95
2022-09-04T06:12:16.123Z,19.12
2022-09-04T06:15:14.055Z,19.27
2022-09-04T06:18:02.637Z,19.43
2022-09-04T06:20:41.345Z,19.56
2022-09-04T06:23:29.852Z,19.70
2022-09-04T06:26:03.359Z,19.89
2022-09-04T06:28:46.185Z,20.09
2022-09-04T06:31:18.898Z,20.33
2022-09-04T06:34:07.125Z,20.50
2022-09-04T06:36:52.682Z,20.66
2022-09-04T06:39:25.290Z,20.80
2022-09-04T06:42:26.686Z,21.08
2022-09-04T06:45:11.518Z,21.14
2022-09-04T06:48:03.670Z,21.27
2022-09-04T06:50:30.286Z,21.35
2022-09-04T06:53:18.944Z,21.42
2022-09-04T06:55:48.284Z,21.34
2022-09-04T06:58:14.784Z,21.15
2022-09-04T07:01:08.177Z,21.22
2022-09-04T07:04:02.436Z,21.21
2022-09-04T07:06:49.244Z,21.18
2022-09-04T07:09:30.581Z,21.20
2022-09-04T07:12:22.041Z,21.27
2022-09-04T07:15:12.380Z,21.30
2022-09-04T07:17:55.731Z,21.43
2022-09-04T07:20:45.131Z,21.72
2022-09-04T07:23:25.098Z,22.11
2022-09-04T07:25:59.795Z,22.75
2022-09-04T07:28:34.684Z,23.17
2022-09-04T07:31:24.653Z,23.68
2022-09-04T07:34:22.963Z,23.95
2022-09-04T07:36:57.986Z,24.32
2022-09-04T07:39:57.154Z,24.76
2022-09-04T07:42:44.502Z,25.12
2022-09-04T07:45:22.528Z,25.50
2022-09-04T07:48:31.182Z,25.70
2022-09-04T07:51:10.696Z,25.89
2022-09-04T07:54:01.211Z,26.25
2022-09-04T07:56:51.703Z,26.71
2022-09-04T07:59:36.433Z,27.09
2022-09-04T08:02:39.913Z,27.39
2022-09-04T08:05:21.589Z,27.74
2022-09-04T08:07:54.047Z,28.02
2022-09-04T08:10:31.547Z,28.31
2022-09-04T08:13:19.357Z,28.50
2022-09-04T08:16:07.784Z,28.66
2022-09-04T08:19:01.410Z,28.93
2022-09-04T08:21:31.200Z,28.74
2022-09-04T08:24:32.255Z,29.10
2022-09-04T08:27:27.156Z,29.70
2022-09-04T08:30:15.067Z,29.45
2022-09-04T08:33:06.768Z,29.63
2022-09-04T08:35:57.701Z,30.11
2022-09-04T08:38:48.977Z,30.93
2022-09-04T08:41:18.438Z,31.12
2022-09-04T08:44:11.690Z,31.16
2022-09-04T08:47:12.143Z,31.22
2022-09-04T08:50:23.839Z,31.30
2022-09-04T08:53:03.177Z,31.54
2022-09-04T08:55:46.999Z,31.81
2022-09-04T08:58:25.505Z,31.84
2022-09-04T09:01:29.598Z,32.21
2022-09-04T09:04:11.981Z,32.79
2022-09-04T09:07:24.974Z,32.90
2022-09-04T09:10:10.571Z,32.92
2022-09-04T09:12:46.222Z,33.22
2022-09-04T09:15:31.494Z,33.27
2022-09-04T09:18:03.356Z,33.59
2022-09-04T09:20:38.988Z,33.80
2022-09-04T09:23:18.145Z,34.25
2022-09-04T09:25:55.023Z,34.58
2022-09-04T09:28:30.546Z,34.57
2022-09-04T09:31:29.154Z,34.78
2022-09-04T09:34:11.479Z,34.78
2022-09-04T09:36:49.629Z,34.88
2022-09-04T09:39:40.924Z,34.43
2022-09-04T09:42:41.451Z,34.23
2022-09-04T09:45:17.523Z,34.85
2022-09-04T09:48:11.496Z,35.53
2022-09-04T09:51:08.724Z,36.06
2022-09-04T09:53:50.680Z,36.22
2022-09-04T09:56:56.270Z,36.18
2022-09-04T09:59:32.329Z,36.46
2022-09-04T10:02:39.572Z,36.75
2022-09-04T10:05:32.366Z,36.25
2022-09-04T10:08:05.202Z,36.56
2022-09-04T10:10:54.219Z,36.69
2022-09-04T10:13:48.560Z,36.56
2022-09-04T10:16:40.149Z,36.00
2022-09-04T10:19:24.908Z,36.06
2022-09-04T10:22:31.096Z,36.52
2022-09-04T10:25:18.689Z,36.94
2022-09-04T10:27:48.349Z,37.47
2022-09-04T10:30:19.963Z,37.85
2022-09-04T10:33:11.951Z,37.69
2022-09-04T10:35:58.166Z,37.99
2022-09-04T10:39:05.408Z,37.69
2022-09-04T10:41:45.237Z,37.96
2022-09-04T10:44:40.384Z,38.54
2022-09-04T10:47:15.705Z,37.37
2022-09-04T10:50:02.422Z,36.70
2022-09-04T10:52:35.097Z,35.74
2022-09-04T10:55:16.513Z,34.71
2022-09-04T10:57:55.320Z,35.22
2022-09-04T11:00:26.528Z,36.53
2022-09-04T11:03:03.462Z,37.21
2022-09-04T11:06:15.817Z,35.97
2022-09-04T11:09:00.673Z,35.76
2022-09-04T11:11:52.802Z,35.81
2022-09-04T11:14:32.039Z,36.55
2022-09-04T11:17:40.315Z,36.72
2022-09-04T11:20:44.979Z,37.09
2022-09-04T11:23:30.074Z,35.95
2022-09-04T11:26:05.934Z,35.46
2022-09-04T11:29:00.616Z,35.87
2022-09-04T11:31:48.452Z,35.16
2022-09-04T11:34:52.654Z,35.30
2022-09-04T11:37:57.781Z,34.92
2022-09-04T11:40:46.130Z,34.50
2022-09-04T11:43:15.563Z,34.51
2022-09-04T11:45:57.517Z,34.20
2022-09-04T11:48:56.514Z,33.25
2022-09-04T11:51:45.946Z,33.72
2022-09-04T11:55:05.103Z,34.12
2022-09-04T11:57:59.792Z,34.72
2022-09-04T12:00:36.399Z,34.48
2022-09-04T12:03:30.810Z,34.78
2022-09-04T12:06:37.408Z,34.71
2022-09-04T12:09:15.340Z,34.04
2022-09-04T12:12:00.990Z,33.55
2022-09-04T12:14:57.960Z,33.66
2022-09-04T12:17:49.699Z,33.45
2022-09-04T12:20:35.065Z,34.45
2022-09-04T12:23:31.481Z,34.45
2022-09-04T12:26:21.571Z,33.97
2022-09-04T12:28:59.979Z,33.77
2022-09-04T12:32:00.611Z,34.65
2022-09-04T12:34:41.680Z,35.30
2022-09-04T12:37:14.421Z,36.09
2022-09-04T12:39:41.815Z,36.53
2022-09-04T12:42:14.375Z,37.09
2022-09-04T12:44:44.027Z,36.89
2022-09-04T12:47:33.216Z,36.22
2022-09-04T12:50:22.675Z,36.49
2022-09-04T12:52:52.655Z,36.38
2022-09-04T12:55:41.627Z,36.56
2022-09-04T12:58:33.431Z,36.55
2022-09-04T13:01:10.713Z,36.06
2022-09-04T13:03:46.717Z,36.42
2022-09-04T13:06:20.873Z,36.15
2022-09-04T13:09:05.140Z,36.24
2022-09-04T13:11:52.410Z,36.04
2022-09-04T13:14:31.055Z,36.05
2022-09-04T13:17:16.860Z,35.81
2022-09-04T13:20:19.969Z,35.77
2022-09-04T13:23:19.141Z,35.50
2022-09-04T13:25:55.789Z,35.72
2022-09-04T13:28:38.133Z,35.87
2022-09-04T13:31:16.135Z,35.88
2022-09-04T13:34:45.243Z,35.90
2022-09-04T13:37:21.222Z,35.74
2022-09-04T13:40:03.177Z,35.90
2022-09-04T13:42:51.790Z,35.74
2022-09-04T13:45:26.759Z,35.26
2022-09-04T13:48:07.242Z,35.12
2022-09-04T13:50:41.936Z,35.10
2022-09-04T13:53:26.011Z,35.27
2022-09-04T13:55:57.384Z,35.50
2022-09-04T13:58:57.850Z,34.82
2022-09-04T14:01:27.974Z,34.82
2022-09-04T14:03:57.665Z,34.82
2022-09-04T14:06:26.877Z,35.15
2022-09-04T14:09:04.586Z,35.29
2022-09-04T14:11:45.415Z,35.45
2022-09-04T14:14:19.932Z,35.29
2022-09-04T14:16:49.481Z,35.35
2022-09-04T14:19:47.523Z,35.43
2022-09-04T14:22:29.432Z,34.65
2022-09-04T14:25:21.331Z,34.65
2022-09-04T14:28:13.247Z,34.34
2022-09-04T14:30:53.979Z,34.31
2022-09-04T14:33:45.462Z,33.97
2022-09-04T14:36:24.699Z,33.75
2022-09-04T14:39:14.678Z,33.77
2022-09-04T14:42:00.040Z,33.66
2022-09-04T14:44:45.277Z,33.69
2022-09-04T14:47:26.902Z,33.93
2022-09-04T14:50:01.286Z,34.00
2022-09-04T14:52:42.134Z,33.76
2022-09-04T14:55:35.258Z,33.77
2022-09-04T14:58:10.693Z,33.55
2022-09-04T15:01:02.393Z,33.59
2022-09-04T15:03:37.282Z,33.83
2022-09-04T15:06:16.280Z,34.20
2022-09-04T15:08:44.411Z,34.43
2022-09-04T15:11:31.113Z,34.54
2022-09-04T15:14:07.839Z,34.72
2022-09-04T15:16:46.624Z,34.67
2022-09-04T15:19:49.894Z,34.52
2022-09-04T15:22:31.006Z,34.61
2022-09-04T15:24:58.459Z,34.51
2022-09-04T15:27:37.737Z,34.28
2022-09-04T15:30:07.020Z,33.90
2022-09-04T15:32:40.065Z,33.63
2022-09-04T15:35:24.044Z,33.29
2022-09-04T15:38:07.787Z,33.15
2022-09-04T15:41:12.692Z,33.21
2022-09-04T15:44:15.662Z,33.29
2022-09-04T15:47:00.700Z,33.01
2022-09-04T15:49:43.989Z,32.76
2022-09-04T15:52:41.257Z,32.22
2022-09-04T15:55:26.806Z,32.15
2022-09-04T15:58:05.441Z,32.11
2022-09-04T16:00:37.120Z,31.86
2022-09-04T16:03:14.972Z,31.61
2022-09-04T16:05:51.317Z,31.41
2022-09-04T16:08:41.186Z,31.19
2022-09-04T16:11:31.862Z,30.76
2022-09-04T16:14:05.887Z,30.64
2022-09-04T16:16:54.373Z,30.52
2022-09-04T16:19:55.521Z,30.52
2022-09-04T16:22:42.673Z,30.48
2022-09-04T16:25:19.204Z,30.30
2022-09-04T16:28:08.054Z,30.21
2022-09-04T16:30:41.676Z,29.96
2022-09-04T16:33:27.794Z,29.87
2022-09-04T16:36:21.258Z,29.77
2022-09-04T16:38:57.299Z,29.76
2022-09-04T16:41:32.433Z,29.70
2022-09-04T16:44:35.154Z,29.66
2022-09-04T16:47:43.888Z,29.61
2022-09-04T16:50:22.128Z,29.41
2022-09-04T16:53:12.474Z,29.32
2022-09-04T16:55:47.087Z,29.28
2022-09-04T16:58:35.772Z,29.21
2022-09-04T17:01:15.656Z,29.11
2022-09-04T17:04:13.475Z,29.00
2022-09-04T17:07:21.609Z,28.88
2022-09-04T17:09:57.300Z,28.74
2022-09-04T17:12:52.677Z,28.53
2022-09-04T17:15:58.715Z,28.33
2022-09-04T17:18:28.851Z,28.19
2022-09-04T17:25:05.688Z,28.09
2022-09-04T17:29:03.950Z,28.01
2022-09-04T17:29:12.103Z,27.84
2022-09-04T17:30:25.584Z,27.67
2022-09-04T17:38:00.952Z,27.54
2022-09-04T17:40:35.642Z,27.47
2022-09-04T17:40:48.846Z,27.37
2022-09-04T17:42:14.230Z,27.24
2022-09-04T17:45:10.437Z,27.12
2022-09-04T17:47:42.688Z,27.04
2022-09-04T17:50:17.218Z,26.98
2022-09-04T17:53:14.546Z,26.83
2022-09-04T17:56:10.530Z,26.73
2022-09-04T17:58:46.492Z,26.62
2022-09-04T18:01:25.220Z,26.51
2022-09-04T18:04:21.717Z,26.40
2022-09-04T18:06:57.066Z,26.34
2022-09-04T18:09:50.300Z,26.21
2022-09-04T18:12:31.304Z,26.13
2022-09-04T18:15:18.306Z,26.04
2022-09-04T18:18:24.645Z,25.97
2022-09-04T18:20:57.583Z,25.85
2022-09-04T18:23:31.337Z,25.73
2022-09-04T18:26:20.196Z,25.63
2022-09-04T18:28:58.972Z,25.48
2022-09-04T18:37:18.498Z,25.42
2022-09-04T18:37:22.648Z,25.38
2022-09-04T18:37:58.722Z,25.25
2022-09-04T18:43:35.964Z,25.19
2022-09-04T18:50:22.703Z,25.11
2022-09-04T18:50:28.629Z,24.90
2022-09-04T18:50:29.498Z,25.04
2022-09-04T18:52:25.341Z,24.79
2022-09-04T18:55:02.327Z,24.70
2022-09-04T18:57:49.200Z,24.61
2022-09-04T19:00:33.280Z,24.55
2022-09-04T19:03:14.624Z,24.49
2022-09-04T19:05:55.579Z,24.42
2022-09-04T19:08:35.271Z,24.35
2022-09-04T19:11:17.486Z,24.33
2022-09-04T19:13:57.091Z,24.28
2022-09-04T19:16:46.404Z,24.25
2022-09-04T19:19:22.227Z,24.21
2022-09-04T19:21:58.309Z,24.16
2022-09-04T19:24:46.921Z,24.13
2022-09-04T19:27:37.585Z,24.12
2022-09-04T19:30:23.604Z,24.08
2022-09-04T19:33:00.454Z,24.02
2022-09-04T19:35:32.175Z,24.01
2022-09-04T19:42:25.559Z,23.97
2022-09-04T19:46:05.152Z,23.92
2022-09-04T19:46:07.886Z,23.88
2022-09-04T19:47:29.009Z,23.84
2022-09-04T19:53:22.502Z,23.75
2022-09-04T19:53:24.173Z,23.64
2022-09-04T19:56:05.908Z,23.53
2022-09-04T19:58:52.497Z,23.50
2022-09-04T20:01:28.968Z,23.50
2022-09-04T20:04:09.377Z,23.44
2022-09-04T20:06:45.667Z,23.43
2022-09-04T20:09:20.316Z,23.43
2022-09-04T20:11:52.552Z,23.39
2022-09-04T20:14:35.880Z,23.36
2022-09-04T20:17:27.456Z,23.34
2022-09-04T20:19:58.918Z,23.30
2022-09-04T20:22:49.496Z,23.27
2022-09-04T20:25:23.909Z,23.23
2022-09-04T20:28:38.565Z,23.17
2022-09-04T20:31:36.345Z,23.17
2022-09-04T20:34:19.160Z,23.15
2022-09-04T20:36:51.618Z,23.13
2022-09-04T20:39:54.253Z,23.15
2022-09-04T20:42:46.582Z,23.13
2022-09-04T20:48:53.726Z,23.13
2022-09-04T20:52:54.180Z,23.06
2022-09-04T20:52:54.575Z,22.98
2022-09-04T20:54:28.178Z,22.95
2022-09-04T21:00:41.993Z,22.95
2022-09-04T21:03:06.794Z,22.89
2022-09-04T21:03:27.908Z,22.84
2022-09-04T21:06:20.756Z,22.81
2022-09-04T21:08:59.362Z,22.79
2022-09-04T21:11:39.246Z,22.72
2022-09-04T21:14:19.941Z,22.67
2022-09-04T21:17:34.208Z,22.51
2022-09-04T21:20:34.041Z,22.43
2022-09-04T21:23:22.724Z,22.24
2022-09-04T21:25:58.730Z,22.06
2022-09-04T21:28:44.102Z,21.99
2022-09-04T21:31:19.727Z,21.97
2022-09-04T21:34:08.212Z,21.92
2022-09-04T21:37:05.628Z,21.90
2022-09-04T21:40:24.405Z,21.97
2022-09-04T21:43:10.033Z,21.92
2022-09-04T21:46:12.810Z,21.86
2022-09-04T21:48:57.734Z,21.80
2022-09-04T21:51:52.807Z,21.90
2022-09-04T21:58:08.054Z,21.80
2022-09-04T22:02:37.030Z,21.63
2022-09-04T22:02:40.788Z,21.61
2022-09-04T22:04:28.913Z,21.62
2022-09-04T22:09:33.059Z,21.59
2022-09-04T22:13:32.291Z,21.56
2022-09-04T22:13:37.743Z,21.49
2022-09-04T22:16:03.206Z,21.45
2022-09-04T22:19:05.684Z,21.46
2022-09-04T22:21:52.090Z,21.39
2022-09-04T22:24:46.961Z,21.42
2022-09-04T22:27:18.643Z,21.42
2022-09-04T22:29:48.440Z,21.39
2022-09-04T22:32:43.890Z,21.45
2022-09-04T22:35:41.616Z,21.48
2022-09-04T22:38:32.552Z,21.39
2022-09-04T22:41:01.720Z,21.39
2022-09-04T22:43:46.733Z,21.37
2022-09-04T22:46:14.128Z,21.32
2022-09-04T22:49:11.028Z,21.32
2022-09-04T22:51:58.464Z,21.35
2022-09-04T22:54:46.016Z,21.27
2022-09-04T22:57:22.133Z,21.21
2022-09-04T22:59:51.657Z,21.17
2022-09-04T23:03:08.325Z,21.20
2022-09-04T23:05:48.999Z,21.15
2022-09-04T23:13:49.009Z,21.15
2022-09-04T23:13:51.941Z,21.11
2022-09-04T23:14:53.615Z,21.05
2022-09-04T23:19:31.316Z,21.05
2022-09-04T23:26:34.728Z,21.00
2022-09-04T23:26:43.775Z,21.15
2022-09-04T23:27:28.446Z,21.20
2022-09-04T23:30:08.154Z,21.15
2022-09-04T23:32:56.490Z,21.08
2022-09-04T23:36:01.423Z,21.22
2022-09-04T23:38:43.664Z,21.27
2022-09-04T23:41:52.922Z,21.27
2022-09-04T23:44:47.778Z,21.21
2022-09-04T23:47:48.214Z,21.21
2022-09-04T23:50:46.276Z,21.05
2022-09-04T23:53:29.417Z,20.94
2022-09-04T23:56:24.686Z,21.00
2022-09-04T23:59:29.232Z,21.05
